sensor_id;sensor_type;location;lat;lon;timestamp;P1;durP1;ratioP1;P2;durP2;ratioP2
33270;SDS011;53180;51.344;6.152;2023-05-10T00:01:52;8.40;;;3.47;;
33270;SDS011;53180;51.344;6.152;2023-05-10T00:04:21;7.03;;;3.33;;
33270;SDS011;53180;51.344;6.152;2023-05-10T00:06:53;4.18;;;2.85;;
33270;SDS011;53180;51.344;6.152;2023-05-10T00:09:21;4.90;;;3.13;;
33270;SDS011;53180;51.344;6.152;2023-05-10T00:11:49;3.60;;;2.67;;
33270;SDS011;53180;51.344;6.152;2023-05-10T00:14:19;5.07;;;2.97;;
33270;SDS011;53180;51.344;6.152;2023-05-10T00:16:47;4.78;;;2.60;;
33270;SDS011;53180;51.344;6.152;2023-05-10T00:19:16;4.00;;;2.30;;
33270;SDS011;53180;51.344;6.152;2023-05-10T00:21:44;3.83;;;2.28;;
33270;SDS011;53180;51.344;6.152;2023-05-10T00:24:12;4.68;;;2.65;;
33270;SDS011;53180;51.344;6.152;2023-05-10T00:26:41;3.15;;;2.15;;
33270;SDS011;53180;51.344;6.152;2023-05-10T00:29:09;3.25;;;2.45;;
33270;SDS011;53180;51.344;6.152;2023-05-10T00:31:38;4.65;;;3.00;;
33270;SDS011;53180;51.344;6.152;2023-05-10T00:34:07;3.70;;;2.55;;
33270;SDS011;53180;51.344;6.152;2023-05-10T00:36:35;4.25;;;2.55;;
33270;SDS011;53180;51.344;6.152;2023-05-10T00:39:03;11.95;;;2.63;;
33270;SDS011;53180;51.344;6.152;2023-05-10T00:41:32;5.07;;;2.67;;
33270;SDS011;53180;51.344;6.152;2023-05-10T00:44:00;4.10;;;2.80;;
33270;SDS011;53180;51.344;6.152;2023-05-10T00:46:29;3.90;;;2.40;;
33270;SDS011;53180;51.344;6.152;2023-05-10T00:48:59;4.25;;;2.47;;
33270;SDS011;53180;51.344;6.152;2023-05-10T00:51:27;3.47;;;2.03;;
33270;SDS011;53180;51.344;6.152;2023-05-10T00:53:57;3.78;;;2.53;;
33270;SDS011;53180;51.344;6.152;2023-05-10T00:56:26;8.30;;;2.17;;
33270;SDS011;53180;51.344;6.152;2023-05-10T00:58:55;2.95;;;2.03;;
33270;SDS011;53180;51.344;6.152;2023-05-10T01:01:24;4.57;;;2.67;;
33270;SDS011;53180;51.344;6.152;2023-05-10T01:03:52;5.97;;;2.70;;
33270;SDS011;53180;51.344;6.152;2023-05-10T01:06:23;2.90;;;2.20;;
33270;SDS011;53180;51.344;6.152;2023-05-10T01:08:51;4.93;;;2.70;;
33270;SDS011;53180;51.344;6.152;2023-05-10T01:11:19;3.47;;;2.15;;
33270;SDS011;53180;51.344;6.152;2023-05-10T01:13:52;3.22;;;2.13;;
33270;SDS011;53180;51.344;6.152;2023-05-10T01:16:24;3.28;;;1.92;;
33270;SDS011;53180;51.344;6.152;2023-05-10T01:18:54;3.53;;;2.33;;
33270;SDS011;53180;51.344;6.152;2023-05-10T01:21:27;3.13;;;2.10;;
33270;SDS011;53180;51.344;6.152;2023-05-10T01:30:33;4.65;;;2.65;;
33270;SDS011;53180;51.344;6.152;2023-05-10T01:33:31;3.90;;;2.72;;
33270;SDS011;53180;51.344;6.152;2023-05-10T01:36:08;4.85;;;2.75;;
33270;SDS011;53180;51.344;6.152;2023-05-10T01:38:47;4.57;;;2.63;;
33270;SDS011;53180;51.344;6.152;2023-05-10T01:41:23;3.97;;;2.55;;
33270;SDS011;53180;51.344;6.152;2023-05-10T01:44:01;3.42;;;2.33;;
33270;SDS011;53180;51.344;6.152;2023-05-10T01:46:38;4.80;;;2.75;;
33270;SDS011;53180;51.344;6.152;2023-05-10T01:49:09;5.93;;;2.78;;
33270;SDS011;53180;51.344;6.152;2023-05-10T01:51:45;3.35;;;2.30;;
33270;SDS011;53180;51.344;6.152;2023-05-10T01:54:21;4.50;;;2.78;;
33270;SDS011;53180;51.344;6.152;2023-05-10T01:59:25;5.85;;;3.17;;
33270;SDS011;53180;51.344;6.152;2023-05-10T02:01:59;4.63;;;3.03;;
33270;SDS011;53180;51.344;6.152;2023-05-10T02:04:30;5.77;;;2.20;;
33270;SDS011;53180;51.344;6.152;2023-05-10T02:07:00;6.97;;;3.72;;
33270;SDS011;53180;51.344;6.152;2023-05-10T02:09:29;5.22;;;3.03;;
33270;SDS011;53180;51.344;6.152;2023-05-10T02:11:59;5.90;;;3.53;;
33270;SDS011;53180;51.344;6.152;2023-05-10T02:14:30;6.38;;;4.20;;
33270;SDS011;53180;51.344;6.152;2023-05-10T02:17:03;7.63;;;4.03;;
33270;SDS011;53180;51.344;6.152;2023-05-10T02:19:35;6.18;;;3.67;;
33270;SDS011;53180;51.344;6.152;2023-05-10T02:22:06;6.53;;;4.18;;
33270;SDS011;53180;51.344;6.152;2023-05-10T02:24:37;7.05;;;4.47;;
33270;SDS011;53180;51.344;6.152;2023-05-10T02:27:07;4.93;;;2.83;;
33270;SDS011;53180;51.344;6.152;2023-05-10T02:29:37;4.27;;;2.83;;
33270;SDS011;53180;51.344;6.152;2023-05-10T02:32:06;7.10;;;4.45;;
33270;SDS011;53180;51.344;6.152;2023-05-10T02:34:37;7.83;;;4.20;;
33270;SDS011;53180;51.344;6.152;2023-05-10T02:37:06;5.07;;;3.15;;
33270;SDS011;53180;51.344;6.152;2023-05-10T02:39:36;12.82;;;5.13;;
33270;SDS011;53180;51.344;6.152;2023-05-10T02:42:10;8.25;;;4.95;;
33270;SDS011;53180;51.344;6.152;2023-05-10T02:44:45;10.95;;;5.63;;
33270;SDS011;53180;51.344;6.152;2023-05-10T02:47:18;7.85;;;4.57;;
33270;SDS011;53180;51.344;6.152;2023-05-10T02:49:48;9.02;;;5.10;;
33270;SDS011;53180;51.344;6.152;2023-05-10T02:52:19;7.78;;;4.63;;
33270;SDS011;53180;51.344;6.152;2023-05-10T02:54:54;11.75;;;5.93;;
33270;SDS011;53180;51.344;6.152;2023-05-10T02:57:27;9.52;;;5.78;;
33270;SDS011;53180;51.344;6.152;2023-05-10T03:00:00;11.05;;;5.65;;
33270;SDS011;53180;51.344;6.152;2023-05-10T03:02:29;8.55;;;5.13;;
33270;SDS011;53180;51.344;6.152;2023-05-10T03:04:59;10.73;;;6.45;;
33270;SDS011;53180;51.344;6.152;2023-05-10T03:07:27;10.60;;;5.70;;
33270;SDS011;53180;51.344;6.152;2023-05-10T03:09:56;17.80;;;6.63;;
33270;SDS011;53180;51.344;6.152;2023-05-10T03:12:27;9.73;;;6.22;;
33270;SDS011;53180;51.344;6.152;2023-05-10T03:15:17;7.32;;;4.32;;
33270;SDS011;53180;51.344;6.152;2023-05-10T03:17:55;13.23;;;6.68;;
33270;SDS011;53180;51.344;6.152;2023-05-10T03:20:31;15.15;;;7.88;;
33270;SDS011;53180;51.344;6.152;2023-05-10T03:23:04;11.77;;;6.35;;
33270;SDS011;53180;51.344;6.152;2023-05-10T03:25:38;11.20;;;6.68;;
33270;SDS011;53180;51.344;6.152;2023-05-10T03:28:07;14.05;;;7.25;;
33270;SDS011;53180;51.344;6.152;2023-05-10T03:30:36;13.07;;;7.15;;
33270;SDS011;53180;51.344;6.152;2023-05-10T03:33:06;14.32;;;7.63;;
33270;SDS011;53180;51.344;6.152;2023-05-10T03:35:36;15.02;;;7.78;;
33270;SDS011;53180;51.344;6.152;2023-05-10T03:38:05;11.25;;;7.20;;
33270;SDS011;53180;51.344;6.152;2023-05-10T03:40:33;15.35;;;7.78;;
33270;SDS011;53180;51.344;6.152;2023-05-10T03:43:01;16.33;;;8.02;;
33270;SDS011;53180;51.344;6.152;2023-05-10T03:45:29;13.27;;;7.75;;
33270;SDS011;53180;51.344;6.152;2023-05-10T03:47:58;14.05;;;7.95;;
33270;SDS011;53180;51.344;6.152;2023-05-10T03:50:26;14.57;;;7.25;;
33270;SDS011;53180;51.344;6.152;2023-05-10T03:52:56;18.60;;;6.95;;
33270;SDS011;53180;51.344;6.152;2023-05-10T03:55:24;15.43;;;8.15;;
33270;SDS011;53180;51.344;6.152;2023-05-10T03:57:52;13.82;;;7.13;;
33270;SDS011;53180;51.344;6.152;2023-05-10T04:00:21;14.20;;;7.03;;
33270;SDS011;53180;51.344;6.152;2023-05-10T04:02:49;14.30;;;7.45;;
33270;SDS011;53180;51.344;6.152;2023-05-10T04:05:17;14.45;;;7.35;;
33270;SDS011;53180;51.344;6.152;2023-05-10T04:07:45;12.38;;;6.80;;
33270;SDS011;53180;51.344;6.152;2023-05-10T04:10:17;11.15;;;6.72;;
33270;SDS011;53180;51.344;6.152;2023-05-10T04:12:45;17.27;;;8.27;;
33270;SDS011;53180;51.344;6.152;2023-05-10T04:15:13;12.43;;;6.85;;
33270;SDS011;53180;51.344;6.152;2023-05-10T04:17:42;16.23;;;7.38;;
33270;SDS011;53180;51.344;6.152;2023-05-10T04:20:10;25.88;;;8.07;;
33270;SDS011;53180;51.344;6.152;2023-05-10T04:22:40;31.25;;;16.40;;
33270;SDS011;53180;51.344;6.152;2023-05-10T04:25:08;106.38;;;47.08;;
33270;SDS011;53180;51.344;6.152;2023-05-10T04:27:38;20.17;;;10.05;;
33270;SDS011;53180;51.344;6.152;2023-05-10T04:30:07;18.00;;;9.38;;
33270;SDS011;53180;51.344;6.152;2023-05-10T04:32:36;15.23;;;8.02;;
33270;SDS011;53180;51.344;6.152;2023-05-10T04:35:04;17.20;;;9.10;;
33270;SDS011;53180;51.344;6.152;2023-05-10T04:37:33;18.90;;;7.68;;
33270;SDS011;53180;51.344;6.152;2023-05-10T04:40:02;15.45;;;7.95;;
33270;SDS011;53180;51.344;6.152;2023-05-10T04:42:32;26.25;;;9.00;;
33270;SDS011;53180;51.344;6.152;2023-05-10T04:45:03;21.33;;;8.40;;
33270;SDS011;53180;51.344;6.152;2023-05-10T04:47:33;23.58;;;8.43;;
33270;SDS011;53180;51.344;6.152;2023-05-10T04:50:03;17.00;;;8.07;;
33270;SDS011;53180;51.344;6.152;2023-05-10T04:52:33;17.43;;;8.17;;
33270;SDS011;53180;51.344;6.152;2023-05-10T04:55:02;19.92;;;8.23;;
33270;SDS011;53180;51.344;6.152;2023-05-10T04:57:33;16.60;;;7.95;;
33270;SDS011;53180;51.344;6.152;2023-05-10T05:00:02;16.02;;;8.43;;
33270;SDS011;53180;51.344;6.152;2023-05-10T05:02:33;23.50;;;9.07;;
33270;SDS011;53180;51.344;6.152;2023-05-10T05:05:01;17.17;;;8.60;;
33270;SDS011;53180;51.344;6.152;2023-05-10T05:07:30;16.30;;;7.97;;
33270;SDS011;53180;51.344;6.152;2023-05-10T05:09:58;23.60;;;9.20;;
33270;SDS011;53180;51.344;6.152;2023-05-10T05:12:26;17.98;;;8.32;;
33270;SDS011;53180;51.344;6.152;2023-05-10T05:14:54;16.83;;;8.23;;
33270;SDS011;53180;51.344;6.152;2023-05-10T05:17:24;15.80;;;8.40;;
33270;SDS011;53180;51.344;6.152;2023-05-10T05:19:53;17.48;;;8.93;;
33270;SDS011;53180;51.344;6.152;2023-05-10T05:22:22;18.25;;;8.85;;
33270;SDS011;53180;51.344;6.152;2023-05-10T05:24:53;21.73;;;8.35;;
33270;SDS011;53180;51.344;6.152;2023-05-10T05:27:22;15.57;;;8.55;;
33270;SDS011;53180;51.344;6.152;2023-05-10T05:29:52;20.52;;;9.15;;
33270;SDS011;53180;51.344;6.152;2023-05-10T05:32:21;20.58;;;8.65;;
33270;SDS011;53180;51.344;6.152;2023-05-10T05:34:51;19.80;;;9.55;;
33270;SDS011;53180;51.344;6.152;2023-05-10T05:37:20;16.67;;;8.23;;
33270;SDS011;53180;51.344;6.152;2023-05-10T05:39:48;22.02;;;8.77;;
33270;SDS011;53180;51.344;6.152;2023-05-10T05:42:17;26.58;;;9.50;;
33270;SDS011;53180;51.344;6.152;2023-05-10T05:44:45;18.45;;;8.25;;
33270;SDS011;53180;51.344;6.152;2023-05-10T05:47:14;17.83;;;8.18;;
33270;SDS011;53180;51.344;6.152;2023-05-10T05:49:42;21.40;;;8.70;;
33270;SDS011;53180;51.344;6.152;2023-05-10T05:52:13;18.25;;;8.38;;
33270;SDS011;53180;51.344;6.152;2023-05-10T05:54:41;14.75;;;7.88;;
33270;SDS011;53180;51.344;6.152;2023-05-10T05:57:10;27.13;;;9.02;;
33270;SDS011;53180;51.344;6.152;2023-05-10T05:59:38;21.83;;;9.02;;
33270;SDS011;53180;51.344;6.152;2023-05-10T06:02:11;20.15;;;8.05;;
33270;SDS011;53180;51.344;6.152;2023-05-10T06:04:40;19.80;;;9.52;;
33270;SDS011;53180;51.344;6.152;2023-05-10T06:07:10;24.35;;;9.57;;
33270;SDS011;53180;51.344;6.152;2023-05-10T06:09:39;22.92;;;8.52;;
33270;SDS011;53180;51.344;6.152;2023-05-10T06:12:08;24.67;;;9.07;;
33270;SDS011;53180;51.344;6.152;2023-05-10T06:14:36;21.00;;;8.85;;
33270;SDS011;53180;51.344;6.152;2023-05-10T06:17:04;20.50;;;8.55;;
33270;SDS011;53180;51.344;6.152;2023-05-10T06:19:33;23.13;;;9.82;;
33270;SDS011;53180;51.344;6.152;2023-05-10T06:22:02;19.50;;;8.70;;
33270;SDS011;53180;51.344;6.152;2023-05-10T06:24:30;22.50;;;9.23;;
33270;SDS011;53180;51.344;6.152;2023-05-10T06:27:00;25.98;;;9.95;;
33270;SDS011;53180;51.344;6.152;2023-05-10T06:29:28;26.63;;;9.70;;
33270;SDS011;53180;51.344;6.152;2023-05-10T06:31:56;21.40;;;9.07;;
33270;SDS011;53180;51.344;6.152;2023-05-10T06:34:24;21.80;;;10.07;;
33270;SDS011;53180;51.344;6.152;2023-05-10T06:36:53;23.92;;;10.07;;
33270;SDS011;53180;51.344;6.152;2023-05-10T06:39:21;23.38;;;9.55;;
33270;SDS011;53180;51.344;6.152;2023-05-10T06:41:49;17.65;;;9.85;;
33270;SDS011;53180;51.344;6.152;2023-05-10T06:44:19;18.13;;;8.93;;
33270;SDS011;53180;51.344;6.152;2023-05-10T06:46:48;19.63;;;9.60;;
33270;SDS011;53180;51.344;6.152;2023-05-10T06:49:17;20.13;;;8.75;;
33270;SDS011;53180;51.344;6.152;2023-05-10T06:51:45;21.02;;;9.70;;
33270;SDS011;53180;51.344;6.152;2023-05-10T06:54:13;19.45;;;8.35;;
33270;SDS011;53180;51.344;6.152;2023-05-10T06:56:42;16.13;;;8.98;;
33270;SDS011;53180;51.344;6.152;2023-05-10T06:59:10;20.60;;;9.73;;
33270;SDS011;53180;51.344;6.152;2023-05-10T07:01:41;18.15;;;8.30;;
33270;SDS011;53180;51.344;6.152;2023-05-10T07:04:09;24.65;;;8.43;;
33270;SDS011;53180;51.344;6.152;2023-05-10T07:06:37;25.13;;;10.02;;
33270;SDS011;53180;51.344;6.152;2023-05-10T07:09:05;17.42;;;9.40;;
33270;SDS011;53180;51.344;6.152;2023-05-10T07:11:34;19.38;;;9.68;;
33270;SDS011;53180;51.344;6.152;2023-05-10T07:14:03;14.57;;;8.55;;
33270;SDS011;53180;51.344;6.152;2023-05-10T07:16:32;19.17;;;8.73;;
33270;SDS011;53180;51.344;6.152;2023-05-10T07:19:01;20.30;;;10.55;;
33270;SDS011;53180;51.344;6.152;2023-05-10T07:23:59;15.23;;;8.55;;
33270;SDS011;53180;51.344;6.152;2023-05-10T07:26:28;16.30;;;9.27;;
33270;SDS011;53180;51.344;6.152;2023-05-10T07:28:56;18.25;;;9.68;;
33270;SDS011;53180;51.344;6.152;2023-05-10T07:31:24;18.98;;;9.10;;
33270;SDS011;53180;51.344;6.152;2023-05-10T07:33:52;16.02;;;8.90;;
33270;SDS011;53180;51.344;6.152;2023-05-10T07:36:22;18.15;;;8.80;;
33270;SDS011;53180;51.344;6.152;2023-05-10T07:38:50;22.08;;;8.05;;
33270;SDS011;53180;51.344;6.152;2023-05-10T07:41:18;18.67;;;8.35;;
33270;SDS011;53180;51.344;6.152;2023-05-10T07:43:47;18.23;;;8.60;;
33270;SDS011;53180;51.344;6.152;2023-05-10T07:46:15;15.20;;;7.53;;
33270;SDS011;53180;51.344;6.152;2023-05-10T07:48:45;18.77;;;7.63;;
33270;SDS011;53180;51.344;6.152;2023-05-10T07:51:13;21.38;;;9.02;;
33270;SDS011;53180;51.344;6.152;2023-05-10T07:53:43;13.05;;;7.63;;
33270;SDS011;53180;51.344;6.152;2023-05-10T07:56:21;12.80;;;6.63;;
33270;SDS011;53180;51.344;6.152;2023-05-10T07:58:53;13.68;;;7.82;;
33270;SDS011;53180;51.344;6.152;2023-05-10T08:01:22;17.15;;;8.13;;
33270;SDS011;53180;51.344;6.152;2023-05-10T08:03:51;11.98;;;6.93;;
33270;SDS011;53180;51.344;6.152;2023-05-10T08:06:20;14.52;;;7.07;;
33270;SDS011;53180;51.344;6.152;2023-05-10T08:08:49;14.35;;;7.13;;
33270;SDS011;53180;51.344;6.152;2023-05-10T08:11:19;10.32;;;7.15;;
33270;SDS011;53180;51.344;6.152;2023-05-10T08:13:48;14.15;;;7.60;;
33270;SDS011;53180;51.344;6.152;2023-05-10T08:16:17;11.85;;;6.95;;
33270;SDS011;53180;51.344;6.152;2023-05-10T08:18:46;14.00;;;7.75;;
33270;SDS011;53180;51.344;6.152;2023-05-10T08:21:15;14.60;;;8.40;;
33270;SDS011;53180;51.344;6.152;2023-05-10T08:23:43;13.68;;;7.35;;
33270;SDS011;53180;51.344;6.152;2023-05-10T08:26:13;16.17;;;7.10;;
33270;SDS011;53180;51.344;6.152;2023-05-10T08:28:41;17.15;;;7.82;;
33270;SDS011;53180;51.344;6.152;2023-05-10T08:31:09;13.60;;;7.35;;
33270;SDS011;53180;51.344;6.152;2023-05-10T08:33:38;12.35;;;7.18;;
33270;SDS011;53180;51.344;6.152;2023-05-10T08:36:09;14.05;;;7.85;;
33270;SDS011;53180;51.344;6.152;2023-05-10T08:38:40;13.80;;;8.05;;
33270;SDS011;53180;51.344;6.152;2023-05-10T08:41:08;14.00;;;7.28;;
33270;SDS011;53180;51.344;6.152;2023-05-10T08:43:39;17.13;;;7.20;;
33270;SDS011;53180;51.344;6.152;2023-05-10T08:46:12;15.63;;;8.35;;
33270;SDS011;53180;51.344;6.152;2023-05-10T08:48:44;16.38;;;8.52;;
33270;SDS011;53180;51.344;6.152;2023-05-10T08:51:13;16.92;;;9.00;;
33270;SDS011;53180;51.344;6.152;2023-05-10T08:53:45;15.35;;;7.85;;
33270;SDS011;53180;51.344;6.152;2023-05-10T08:56:14;14.55;;;7.75;;
33270;SDS011;53180;51.344;6.152;2023-05-10T08:58:45;20.52;;;8.75;;
33270;SDS011;53180;51.344;6.152;2023-05-10T09:03:45;24.58;;;9.82;;
33270;SDS011;53180;51.344;6.152;2023-05-10T09:06:14;17.50;;;7.60;;
33270;SDS011;53180;51.344;6.152;2023-05-10T09:08:42;17.08;;;9.10;;
33270;SDS011;53180;51.344;6.152;2023-05-10T09:11:12;16.55;;;8.65;;
33270;SDS011;53180;51.344;6.152;2023-05-10T09:13:40;18.65;;;7.25;;
33270;SDS011;53180;51.344;6.152;2023-05-10T09:16:12;15.53;;;7.83;;
33270;SDS011;53180;51.344;6.152;2023-05-10T09:18:45;10.55;;;6.07;;
33270;SDS011;53180;51.344;6.152;2023-05-10T09:21:13;11.73;;;6.90;;
33270;SDS011;53180;51.344;6.152;2023-05-10T09:23:42;9.85;;;6.03;;
33270;SDS011;53180;51.344;6.152;2023-05-10T09:26:13;15.18;;;6.50;;
33270;SDS011;53180;51.344;6.152;2023-05-10T09:28:51;18.33;;;6.95;;
33270;SDS011;53180;51.344;6.152;2023-05-10T09:31:23;10.73;;;6.20;;
33270;SDS011;53180;51.344;6.152;2023-05-10T09:33:52;8.40;;;4.65;;
33270;SDS011;53180;51.344;6.152;2023-05-10T09:36:21;10.93;;;6.28;;
33270;SDS011;53180;51.344;6.152;2023-05-10T09:38:49;9.68;;;5.80;;
33270;SDS011;53180;51.344;6.152;2023-05-10T09:41:20;7.13;;;4.00;;
33270;SDS011;53180;51.344;6.152;2023-05-10T09:43:50;8.98;;;5.40;;
33270;SDS011;53180;51.344;6.152;2023-05-10T09:46:24;8.45;;;5.00;;
33270;SDS011;53180;51.344;6.152;2023-05-10T09:48:53;9.70;;;5.88;;
33270;SDS011;53180;51.344;6.152;2023-05-10T09:51:21;9.93;;;5.63;;
33270;SDS011;53180;51.344;6.152;2023-05-10T09:54:08;14.02;;;6.60;;
33270;SDS011;53180;51.344;6.152;2023-05-10T09:56:37;9.80;;;5.45;;
33270;SDS011;53180;51.344;6.152;2023-05-10T09:59:07;9.38;;;5.88;;
33270;SDS011;53180;51.344;6.152;2023-05-10T10:01:39;12.50;;;5.88;;
33270;SDS011;53180;51.344;6.152;2023-05-10T10:04:09;14.75;;;6.50;;
33270;SDS011;53180;51.344;6.152;2023-05-10T10:06:37;11.48;;;6.47;;
33270;SDS011;53180;51.344;6.152;2023-05-10T10:09:07;10.75;;;6.35;;
33270;SDS011;53180;51.344;6.152;2023-05-10T10:11:36;9.80;;;6.22;;
33270;SDS011;53180;51.344;6.152;2023-05-10T10:14:07;11.35;;;6.38;;
33270;SDS011;53180;51.344;6.152;2023-05-10T10:16:35;10.80;;;6.15;;
33270;SDS011;53180;51.344;6.152;2023-05-10T10:21:47;11.90;;;7.10;;
33270;SDS011;53180;51.344;6.152;2023-05-10T10:24:16;11.82;;;6.55;;
33270;SDS011;53180;51.344;6.152;2023-05-10T10:26:45;10.75;;;6.63;;
33270;SDS011;53180;51.344;6.152;2023-05-10T10:29:18;13.65;;;7.05;;
33270;SDS011;53180;51.344;6.152;2023-05-10T10:31:53;9.88;;;6.07;;
33270;SDS011;53180;51.344;6.152;2023-05-10T10:34:32;9.55;;;5.70;;
33270;SDS011;53180;51.344;6.152;2023-05-10T10:37:03;10.23;;;6.20;;
33270;SDS011;53180;51.344;6.152;2023-05-10T10:39:33;10.63;;;6.35;;
33270;SDS011;53180;51.344;6.152;2023-05-10T10:42:04;8.80;;;5.47;;
33270;SDS011;53180;51.344;6.152;2023-05-10T10:44:33;10.55;;;6.25;;
33270;SDS011;53180;51.344;6.152;2023-05-10T10:47:06;9.57;;;6.47;;
33270;SDS011;53180;51.344;6.152;2023-05-10T10:49:54;11.63;;;6.43;;
33270;SDS011;53180;51.344;6.152;2023-05-10T10:52:32;10.65;;;6.18;;
33270;SDS011;53180;51.344;6.152;2023-05-10T10:55:02;9.35;;;5.90;;
33270;SDS011;53180;51.344;6.152;2023-05-10T10:57:42;10.02;;;6.05;;
33270;SDS011;53180;51.344;6.152;2023-05-10T11:00:26;10.13;;;6.05;;
33270;SDS011;53180;51.344;6.152;2023-05-10T11:02:58;10.55;;;6.05;;
33270;SDS011;53180;51.344;6.152;2023-05-10T11:05:36;9.40;;;5.95;;
33270;SDS011;53180;51.344;6.152;2023-05-10T11:08:11;10.70;;;6.15;;
33270;SDS011;53180;51.344;6.152;2023-05-10T11:10:49;11.20;;;6.13;;
33270;SDS011;53180;51.344;6.152;2023-05-10T11:13:26;10.65;;;6.80;;
33270;SDS011;53180;51.344;6.152;2023-05-10T11:15:56;11.05;;;7.05;;
33270;SDS011;53180;51.344;6.152;2023-05-10T11:18:26;10.10;;;6.28;;
33270;SDS011;53180;51.344;6.152;2023-05-10T11:20:57;11.23;;;6.47;;
33270;SDS011;53180;51.344;6.152;2023-05-10T11:23:30;12.07;;;7.60;;
33270;SDS011;53180;51.344;6.152;2023-05-10T11:25:59;10.18;;;6.43;;
33270;SDS011;53180;51.344;6.152;2023-05-10T11:28:28;14.80;;;7.78;;
33270;SDS011;53180;51.344;6.152;2023-05-10T11:30:56;16.27;;;6.78;;
33270;SDS011;53180;51.344;6.152;2023-05-10T11:33:25;9.40;;;6.03;;
33270;SDS011;53180;51.344;6.152;2023-05-10T11:35:53;9.90;;;5.85;;
33270;SDS011;53180;51.344;6.152;2023-05-10T11:38:22;10.40;;;6.03;;
33270;SDS011;53180;51.344;6.152;2023-05-10T11:40:51;11.80;;;5.55;;
33270;SDS011;53180;51.344;6.152;2023-05-10T11:43:23;12.68;;;6.40;;
33270;SDS011;53180;51.344;6.152;2023-05-10T11:45:54;13.45;;;7.00;;
33270;SDS011;53180;51.344;6.152;2023-05-10T11:48:22;11.50;;;6.80;;
33270;SDS011;53180;51.344;6.152;2023-05-10T11:50:51;15.27;;;7.13;;
33270;SDS011;53180;51.344;6.152;2023-05-10T11:53:24;12.18;;;7.22;;
33270;SDS011;53180;51.344;6.152;2023-05-10T11:55:53;10.10;;;7.30;;
33270;SDS011;53180;51.344;6.152;2023-05-10T11:58:22;13.40;;;7.93;;
33270;SDS011;53180;51.344;6.152;2023-05-10T12:00:50;16.35;;;8.40;;
33270;SDS011;53180;51.344;6.152;2023-05-10T12:03:18;12.98;;;7.65;;
33270;SDS011;53180;51.344;6.152;2023-05-10T12:05:47;13.13;;;8.07;;
33270;SDS011;53180;51.344;6.152;2023-05-10T12:08:16;18.73;;;9.07;;
33270;SDS011;53180;51.344;6.152;2023-05-10T12:10:50;17.40;;;9.35;;
33270;SDS011;53180;51.344;6.152;2023-05-10T12:13:19;16.05;;;8.90;;
33270;SDS011;53180;51.344;6.152;2023-05-10T12:15:47;15.40;;;8.60;;
33270;SDS011;53180;51.344;6.152;2023-05-10T12:18:22;15.32;;;9.13;;
33270;SDS011;53180;51.344;6.152;2023-05-10T12:20:52;14.80;;;7.97;;
33270;SDS011;53180;51.344;6.152;2023-05-10T12:23:20;14.73;;;8.50;;
33270;SDS011;53180;51.344;6.152;2023-05-10T12:25:50;14.10;;;8.50;;
33270;SDS011;53180;51.344;6.152;2023-05-10T12:28:20;16.20;;;8.30;;
33270;SDS011;53180;51.344;6.152;2023-05-10T12:30:48;14.40;;;7.90;;
33270;SDS011;53180;51.344;6.152;2023-05-10T12:33:20;15.05;;;8.15;;
33270;SDS011;53180;51.344;6.152;2023-05-10T12:35:49;13.77;;;8.35;;
33270;SDS011;53180;51.344;6.152;2023-05-10T12:38:23;15.40;;;8.00;;
33270;SDS011;53180;51.344;6.152;2023-05-10T12:40:56;16.65;;;8.90;;
33270;SDS011;53180;51.344;6.152;2023-05-10T12:43:26;12.35;;;7.45;;
33270;SDS011;53180;51.344;6.152;2023-05-10T12:45:54;12.05;;;7.35;;
33270;SDS011;53180;51.344;6.152;2023-05-10T12:48:23;13.93;;;7.72;;
33270;SDS011;53180;51.344;6.152;2023-05-10T12:50:51;9.40;;;6.35;;
33270;SDS011;53180;51.344;6.152;2023-05-10T12:53:20;11.52;;;7.35;;
33270;SDS011;53180;51.344;6.152;2023-05-10T12:55:48;10.65;;;6.40;;
33270;SDS011;53180;51.344;6.152;2023-05-10T12:58:17;10.35;;;6.47;;
33270;SDS011;53180;51.344;6.152;2023-05-10T13:01:01;11.95;;;6.57;;
33270;SDS011;53180;51.344;6.152;2023-05-10T13:03:30;10.77;;;6.32;;
33270;SDS011;53180;51.344;6.152;2023-05-10T13:05:58;11.32;;;6.85;;
33270;SDS011;53180;51.344;6.152;2023-05-10T13:08:27;11.82;;;6.82;;
33270;SDS011;53180;51.344;6.152;2023-05-10T13:10:59;10.15;;;5.95;;
33270;SDS011;53180;51.344;6.152;2023-05-10T13:13:29;8.38;;;5.50;;
33270;SDS011;53180;51.344;6.152;2023-05-10T13:15:57;9.82;;;6.45;;
33270;SDS011;53180;51.344;6.152;2023-05-10T13:18:26;11.95;;;6.53;;
33270;SDS011;53180;51.344;6.152;2023-05-10T13:20:54;10.77;;;6.35;;
33270;SDS011;53180;51.344;6.152;2023-05-10T13:23:22;8.63;;;5.53;;
33270;SDS011;53180;51.344;6.152;2023-05-10T13:25:51;10.48;;;5.78;;
33270;SDS011;53180;51.344;6.152;2023-05-10T13:28:19;10.18;;;6.05;;
33270;SDS011;53180;51.344;6.152;2023-05-10T13:30:49;9.13;;;5.93;;
33270;SDS011;53180;51.344;6.152;2023-05-10T13:33:17;8.85;;;6.10;;
33270;SDS011;53180;51.344;6.152;2023-05-10T13:35:45;9.05;;;5.05;;
33270;SDS011;53180;51.344;6.152;2023-05-10T13:38:13;10.85;;;5.97;;
33270;SDS011;53180;51.344;6.152;2023-05-10T13:40:41;14.13;;;6.43;;
33270;SDS011;53180;51.344;6.152;2023-05-10T13:43:10;12.65;;;6.30;;
33270;SDS011;53180;51.344;6.152;2023-05-10T13:45:38;6.65;;;4.32;;
33270;SDS011;53180;51.344;6.152;2023-05-10T13:48:07;8.32;;;5.28;;
33270;SDS011;53180;51.344;6.152;2023-05-10T13:50:36;14.43;;;4.90;;
33270;SDS011;53180;51.344;6.152;2023-05-10T13:53:04;8.52;;;4.78;;
33270;SDS011;53180;51.344;6.152;2023-05-10T13:55:32;12.23;;;5.90;;
33270;SDS011;53180;51.344;6.152;2023-05-10T13:58:01;5.53;;;4.30;;
33270;SDS011;53180;51.344;6.152;2023-05-10T14:00:29;9.13;;;5.53;;
33270;SDS011;53180;51.344;6.152;2023-05-10T14:02:58;8.68;;;5.38;;
33270;SDS011;53180;51.344;6.152;2023-05-10T14:05:28;7.22;;;4.90;;
33270;SDS011;53180;51.344;6.152;2023-05-10T14:07:56;8.10;;;5.00;;
33270;SDS011;53180;51.344;6.152;2023-05-10T14:10:24;5.82;;;3.78;;
33270;SDS011;53180;51.344;6.152;2023-05-10T14:12:53;6.63;;;4.47;;
33270;SDS011;53180;51.344;6.152;2023-05-10T14:15:21;9.45;;;5.13;;
33270;SDS011;53180;51.344;6.152;2023-05-10T14:17:49;9.30;;;4.32;;
33270;SDS011;53180;51.344;6.152;2023-05-10T14:20:18;7.00;;;4.65;;
33270;SDS011;53180;51.344;6.152;2023-05-10T14:22:47;8.70;;;4.72;;
33270;SDS011;53180;51.344;6.152;2023-05-10T14:25:16;7.28;;;4.78;;
33270;SDS011;53180;51.344;6.152;2023-05-10T14:27:46;6.90;;;4.25;;
33270;SDS011;53180;51.344;6.152;2023-05-10T14:30:14;11.25;;;5.00;;
33270;SDS011;53180;51.344;6.152;2023-05-10T14:32:42;7.38;;;4.35;;
33270;SDS011;53180;51.344;6.152;2023-05-10T14:35:11;9.75;;;5.25;;
33270;SDS011;53180;51.344;6.152;2023-05-10T14:37:43;5.70;;;3.92;;
33270;SDS011;53180;51.344;6.152;2023-05-10T14:40:13;6.13;;;3.95;;
33270;SDS011;53180;51.344;6.152;2023-05-10T14:42:43;11.32;;;5.15;;
33270;SDS011;53180;51.344;6.152;2023-05-10T14:45:11;7.45;;;4.80;;
33270;SDS011;53180;51.344;6.152;2023-05-10T14:47:40;11.45;;;5.35;;
33270;SDS011;53180;51.344;6.152;2023-05-10T14:50:08;8.82;;;4.93;;
33270;SDS011;53180;51.344;6.152;2023-05-10T14:52:50;8.32;;;4.30;;
33270;SDS011;53180;51.344;6.152;2023-05-10T14:55:19;9.55;;;5.15;;
33270;SDS011;53180;51.344;6.152;2023-05-10T14:57:47;8.85;;;4.85;;
33270;SDS011;53180;51.344;6.152;2023-05-10T15:00:17;10.20;;;4.55;;
33270;SDS011;53180;51.344;6.152;2023-05-10T15:02:46;11.63;;;5.03;;
33270;SDS011;53180;51.344;6.152;2023-05-10T15:05:15;9.98;;;4.45;;
33270;SDS011;53180;51.344;6.152;2023-05-10T15:07:44;7.25;;;4.45;;
33270;SDS011;53180;51.344;6.152;2023-05-10T15:10:13;8.00;;;4.13;;
33270;SDS011;53180;51.344;6.152;2023-05-10T15:12:43;8.30;;;4.07;;